Time;durP1;ratioP1;P1;durP2;ratioP2;P2;SDS_P1;SDS_P2;PMS_P1;PMS_P2;Temp;Humidity;BMP_temperature;BMP_pressure;BME280_temperature;BME280_humidity;BME280_pressure;Samples;Min_cycle;Max_cycle;Signal;HPM_P1;HPM_P2
2024/02/13 00:01:07;;;;;;;7.43;5.03;;;;;;;6.41;100.00;101045.81;6104232;29;20247;-69
2024/02/13 00:04:30;;;;;;;5.83;4.20;;;;;;;6.23;100.00;101044.41;6094489;29;20255;-69
2024/02/13 00:07:50;;;;;;;9.00;4.90;;;;;;;6.17;100.00;101056.41;6100752;29;20219;-69
2024/02/13 00:11:13;;;;;;;5.53;4.20;;;;;;;6.15;100.00;101052.13;6103944;29;20224;-68
2024/02/13 00:14:34;;;;;;;7.33;4.93;;;;;;;6.12;100.00;101057.66;6111448;29;20232;-69
2024/02/13 00:17:55;;;;;;;6.87;5.10;;;;;;;6.09;100.00;101063.22;6091798;29;20231;-69
2024/02/13 00:21:19;;;;;;;9.40;4.87;;;;;;;6.02;100.00;101070.81;6095815;29;20228;-70
2024/02/13 00:24:40;;;;;;;8.77;4.90;;;;;;;6.02;100.00;101064.59;6101183;29;20240;-70
2024/02/13 00:28:00;;;;;;;4.17;3.70;;;;;;;5.96;100.00;101086.41;6103836;29;20236;-69
2024/02/13 00:31:24;;;;;;;5.03;3.77;;;;;;;5.93;100.00;101091.94;6097355;29;20252;-69
2024/02/13 00:34:45;;;;;;;7.63;3.57;;;;;;;5.82;100.00;101081.91;6103788;29;20367;-68
2024/02/13 00:38:08;;;;;;;6.73;4.77;;;;;;;5.87;100.00;101098.56;6101391;29;20235;-69
2024/02/13 00:41:28;;;;;;;6.23;4.60;;;;;;;5.80;100.00;101099.06;6092538;29;20595;-69
2024/02/13 00:44:49;;;;;;;4.80;3.80;;;;;;;5.78;100.00;101109.00;6110163;29;20565;-68
2024/02/13 00:48:10;;;;;;;6.17;4.13;;;;;;;5.67;100.00;101102.50;6102704;29;20612;-70
2024/02/13 00:51:31;;;;;;;4.97;4.20;;;;;;;5.59;100.00;101106.66;6098926;29;20247;-70
2024/02/13 00:54:55;;;;;;;4.50;4.10;;;;;;;5.65;100.00;101114.28;6108648;29;20333;-69
2024/02/13 00:58:16;;;;;;;11.57;4.60;;;;;;;5.73;100.00;101111.09;6106960;29;20242;-68
2024/02/13 01:01:37;;;;;;;3.53;3.10;;;;;;;5.72;100.00;101122.75;6103889;29;20227;-68
2024/02/13 01:04:58;;;;;;;6.43;4.83;;;;;;;5.72;100.00;101125.41;6091222;29;20918;-69
2024/02/13 01:08:23;;;;;;;4.23;3.87;;;;;;;5.54;100.00;101132.81;6095475;29;20229;-69
2024/02/13 01:11:45;;;;;;;5.97;4.03;;;;;;;5.63;100.00;101134.91;6098520;29;20244;-69
2024/02/13 01:15:07;;;;;;;5.87;4.57;;;;;;;5.58;100.00;101145.03;6094910;29;20236;-69
2024/02/13 01:18:29;;;;;;;4.43;3.80;;;;;;;5.57;100.00;101145.97;6096974;29;20314;-68
2024/02/13 01:21:50;;;;;;;3.57;3.27;;;;;;;5.50;100.00;101153.56;6099500;29;20240;-68
2024/02/13 01:25:13;;;;;;;8.27;3.73;;;;;;;5.44;100.00;101139.72;6093551;29;20273;-68
2024/02/13 01:28:37;;;;;;;7.17;3.73;;;;;;;5.43;100.00;101146.00;6100199;29;20666;-69
2024/02/13 01:31:58;;;;;;;5.90;4.00;;;;;;;5.34;100.00;101151.94;6073948;29;20236;-69
2024/02/13 01:35:19;;;;;;;3.70;3.40;;;;;;;5.24;100.00;101162.34;6100148;29;20243;-69
2024/02/13 01:38:40;;;;;;;6.27;3.93;;;;;;;5.16;100.00;101159.28;6105913;29;20232;-70
2024/02/13 01:42:01;;;;;;;6.10;4.57;;;;;;;5.16;100.00;101155.75;6098764;29;20236;-69
2024/02/13 01:45:24;;;;;;;6.00;4.60;;;;;;;5.14;100.00;101163.00;6105812;29;20228;-70
2024/02/13 01:48:45;;;;;;;6.63;3.87;;;;;;;5.15;100.00;101154.03;6067162;29;20233;-70
2024/02/13 01:52:06;;;;;;;5.97;4.27;;;;;;;5.11;100.00;101157.88;6099645;29;20248;-68
2024/02/13 01:55:29;;;;;;;7.77;4.20;;;;;;;5.09;100.00;101160.59;6099896;29;20607;-70
2024/02/13 01:58:52;;;;;;;7.00;3.80;;;;;;;5.09;100.00;101160.59;6086803;29;20832;-70
2024/02/13 02:02:15;;;;;;;6.10;4.47;;;;;;;5.13;100.00;101172.81;6061757;29;20272;-69
2024/02/13 02:05:36;;;;;;;7.53;5.17;;;;;;;5.12;100.00;101172.94;6091943;29;20645;-69
2024/02/13 02:08:57;;;;;;;6.90;5.77;;;;;;;5.09;100.00;101167.78;6108347;29;21657;-69
2024/02/13 02:12:18;;;;;;;5.87;4.03;;;;;;;5.15;100.00;101170.94;6103297;29;20229;-68
2024/02/13 02:15:41;;;;;;;8.13;5.50;;;;;;;5.08;100.00;101172.25;6104091;29;20323;-70
2024/02/13 02:19:03;;;;;;;6.70;4.43;;;;;;;5.12;100.00;101191.63;6108214;29;20249;-70
2024/02/13 02:22:24;;;;;;;4.87;3.73;;;;;;;5.20;100.00;101181.31;6100834;29;20231;-69
2024/02/13 02:25:46;;;;;;;5.07;4.50;;;;;;;5.15;100.00;101195.00;6103376;29;20251;-69
2024/02/13 02:29:08;;;;;;;8.57;4.73;;;;;;;5.21;100.00;101197.28;6108039;29;20244;-70
2024/02/13 02:32:29;;;;;;;5.60;3.60;;;;;;;5.18;100.00;101201.94;6100974;29;20334;-68
2024/02/13 02:35:50;;;;;;;5.90;4.40;;;;;;;5.17;100.00;101194.91;6100212;29;20248;-68
2024/02/13 02:39:11;;;;;;;5.17;4.00;;;;;;;5.15;100.00;101204.81;6094650;29;20271;-68
2024/02/13 02:42:33;;;;;;;9.00;4.93;;;;;;;5.16;100.00;101210.06;6098582;29;20793;-68
2024/02/13 02:45:54;;;;;;;3.57;3.23;;;;;;;5.04;100.00;101216.16;6097903;29;20239;-69
2024/02/13 02:49:17;;;;;;;7.63;4.27;;;;;;;5.10;100.00;101215.78;6103307;29;20236;-69
2024/02/13 02:52:38;;;;;;;5.50;3.60;;;;;;;5.13;100.00;101212.91;6079813;29;20236;-70
2024/02/13 02:55:59;;;;;;;4.30;3.37;;;;;;;5.22;100.00;101223.03;6096457;29;20493;-69
2024/02/13 02:59:32;;;;;;;4.20;3.30;;;;;;;5.26;100.00;101224.56;6111748;29;20220;-69
2024/02/13 03:02:53;;;;;;;3.67;3.37;;;;;;;5.25;100.00;101225.53;6098287;29;20597;-69
2024/02/13 03:06:14;;;;;;;4.17;3.77;;;;;;;5.24;100.00;101226.47;6097993;29;20434;-69
2024/02/13 03:09:34;;;;;;;6.20;3.80;;;;;;;5.32;100.00;101221.53;6109303;29;20240;-70
2024/02/13 03:12:57;;;;;;;7.27;4.00;;;;;;;5.28;100.00;101213.78;6099398;29;20605;-69
2024/02/13 03:16:19;;;;;;;7.33;4.67;;;;;;;5.33;100.00;101227.72;6096600;29;20256;-69
2024/02/13 03:19:40;;;;;;;6.97;3.40;;;;;;;5.28;100.00;101227.13;6110294;29;20235;-70
2024/02/13 03:23:01;;;;;;;3.27;2.97;;;;;;;5.32;100.00;101223.34;6103048;29;20347;-69
2024/02/13 03:26:22;;;;;;;3.93;3.13;;;;;;;5.34;100.00;101237.47;6100377;29;20233;-69
2024/02/13 03:29:44;;;;;;;3.90;3.53;;;;;;;5.34;100.00;101238.31;6110194;29;20670;-69
2024/02/13 03:33:06;;;;;;;6.67;3.33;;;;;;;5.35;100.00;101237.38;6098038;29;20247;-68
2024/02/13 03:36:27;;;;;;;5.23;3.93;;;;;;;5.39;100.00;101230.88;6100572;29;20220;-69
2024/02/13 03:39:48;;;;;;;14.90;3.70;;;;;;;5.47;100.00;101230.41;6103118;29;20577;-68
2024/02/13 03:43:11;;;;;;;6.40;3.23;;;;;;;5.52;100.00;101241.69;6109134;29;20511;-69
2024/02/13 03:46:32;;;;;;;8.67;3.20;;;;;;;5.56;100.00;101243.22;6100278;29;20244;-69
2024/02/13 03:49:56;;;;;;;3.40;2.83;;;;;;;5.53;100.00;101243.38;6104687;29;20245;-69
2024/02/13 03:53:16;;;;;;;6.97;4.60;;;;;;;5.50;100.00;101249.81;6104367;29;21930;-69
2024/02/13 03:56:38;;;;;;;5.57;3.53;;;;;;;5.50;100.00;101243.59;6101036;29;20241;-69
2024/02/13 04:00:00;;;;;;;4.27;3.33;;;;;;;5.45;100.00;101254.56;6102467;29;20232;-69
2024/02/13 04:03:21;;;;;;;5.50;3.73;;;;;;;5.42;100.00;101259.25;6103839;29;20267;-70
2024/02/13 04:06:43;;;;;;;6.47;3.83;;;;;;;5.38;100.00;101263.91;6107263;29;20328;-69
2024/02/13 04:10:05;;;;;;;4.83;4.30;;;;;;;5.32;100.00;101260.78;6102791;29;20240;-68
2024/02/13 04:13:26;;;;;;;5.37;4.47;;;;;;;5.34;100.00;101270.38;6105026;29;20231;-69
2024/02/13 04:16:47;;;;;;;5.90;4.20;;;;;;;5.43;100.00;101263.63;6087987;29;20235;-70
2024/02/13 04:20:09;;;;;;;4.37;3.30;;;;;;;5.43;100.00;101263.63;6100611;29;20602;-69
2024/02/13 04:23:32;;;;;;;3.43;3.13;;;;;;;5.44;100.00;101268.03;6105312;29;20223;-69
2024/02/13 04:26:53;;;;;;;6.87;3.90;;;;;;;5.45;100.00;101267.94;6097969;29;20232;-69
2024/02/13 04:30:15;;;;;;;5.80;3.93;;;;;;;5.46;100.00;101271.47;6098259;29;20525;-69
2024/02/13 04:33:36;;;;;;;3.77;3.47;;;;;;;5.40;100.00;101279.88;6079165;29;20228;-70
2024/02/13 04:36:56;;;;;;;7.30;4.13;;;;;;;5.37;100.00;101277.38;6104540;29;20235;-70
2024/02/13 04:40:19;;;;;;;9.60;4.30;;;;;;;5.36;100.00;101278.34;6098603;29;20240;-69
2024/02/13 04:43:41;;;;;;;5.13;4.63;;;;;;;5.33;100.00;101278.50;6107422;29;21132;-69
2024/02/13 04:47:02;;;;;;;3.90;3.60;;;;;;;5.29;100.00;101280.53;6090958;29;20236;-69
2024/02/13 04:50:23;;;;;;;5.50;5.00;;;;;;;5.29;100.00;101279.66;6094271;29;20654;-69
2024/02/13 04:53:45;;;;;;;5.50;4.53;;;;;;;5.25;100.00;101278.13;6103585;29;20230;-69
2024/02/13 04:57:07;;;;;;;5.80;5.30;;;;;;;5.22;100.00;101275.63;6102377;29;20232;-69
2024/02/13 05:00:29;;;;;;;5.83;3.80;;;;;;;5.23;100.00;101285.38;6095402;29;20247;-68
2024/02/13 05:07:29;;;;;;;5.57;4.63;;;;;;;5.19;100.00;101284.72;6092279;29;20233;-68
2024/02/13 05:10:50;;;;;;;8.17;5.50;;;;;;;5.18;100.00;101280.31;6102227;29;20236;-69
2024/02/13 05:14:14;;;;;;;5.10;4.70;;;;;;;5.14;100.00;101283.25;6109849;29;20223;-69
2024/02/13 05:17:35;;;;;;;7.00;5.77;;;;;;;5.09;100.00;101280.00;6099502;29;20240;-68
2024/02/13 05:20:56;;;;;;;8.93;5.43;;;;;;;5.09;100.00;101290.69;6099086;29;20231;-68
2024/02/13 05:24:17;;;;;;;10.97;5.43;;;;;;;5.13;100.00;101294.91;6105740;29;20610;-68
2024/02/13 05:27:38;;;;;;;9.13;5.97;;;;;;;5.08;100.00;101295.16;6100898;29;20239;-68
2024/02/13 05:31:00;;;;;;;10.37;5.80;;;;;;;5.03;100.00;101291.06;6096168;29;20235;-68
2024/02/13 05:34:26;;;;;;;5.73;5.13;;;;;;;5.01;100.00;101288.44;6106869;29;20323;-69
2024/02/13 05:37:47;;;;;;;7.33;5.57;;;;;;;5.01;100.00;101295.59;6105293;29;20257;-68
2024/02/13 05:41:08;;;;;;;10.13;6.13;;;;;;;4.98;100.00;101298.47;6103953;29;20236;-68
2024/02/13 05:44:29;;;;;;;9.17;5.67;;;;;;;4.95;100.00;101296.84;6108287;29;20508;-68
2024/02/13 05:47:52;;;;;;;11.53;8.03;;;;;;;4.98;100.00;101301.16;6091860;29;20239;-69
2024/02/13 05:51:15;;;;;;;9.37;5.97;;;;;;;4.97;100.00;101305.63;6103189;29;20244;-68
2024/02/13 05:54:36;;;;;;;9.63;7.20;;;;;;;4.96;100.00;101303.91;6107625;29;20259;-68
2024/02/13 05:57:58;;;;;;;7.30;6.60;;;;;;;5.01;100.00;101308.97;6106575;29;20236;-68
2024/02/13 06:01:19;;;;;;;10.53;6.37;;;;;;;5.01;100.00;101309.81;6090343;29;20243;-68
2024/02/13 06:04:44;;;;;;;6.87;6.17;;;;;;;4.97;100.00;101313.63;6111836;29;20244;-68
2024/02/13 06:08:07;;;;;;;8.10;7.40;;;;;;;4.94;100.00;101312.97;6095545;29;21038;-68
2024/02/13 06:11:29;;;;;;;11.47;6.73;;;;;;;4.91;100.00;101326.47;6103034;29;20232;-69
2024/02/13 06:14:50;;;;;;;9.70;6.57;;;;;;;4.86;100.00;101318.72;6107875;29;20444;-68
2024/02/13 06:18:10;;;;;;;13.23;6.67;;;;;;;4.86;100.00;101321.41;6102115;29;20224;-69
2024/02/13 06:21:33;;;;;;;12.83;9.00;;;;;;;4.86;100.00;101326.75;6094671;29;20843;-69
2024/02/13 06:24:54;;;;;;;8.10;6.80;;;;;;;4.81;100.00;101336.84;6086957;29;20248;-70
2024/02/13 06:28:16;;;;;;;9.07;6.37;;;;;;;4.78;100.00;101335.22;6105413;29;20235;-69
2024/02/13 06:31:37;;;;;;;9.00;6.27;;;;;;;4.81;100.00;101337.72;6098655;29;20239;-69
2024/02/13 06:34:58;;;;;;;13.90;7.57;;;;;;;4.76;100.00;101338.91;6060922;29;20233;-69
2024/02/13 06:38:20;;;;;;;6.93;6.23;;;;;;;4.80;100.00;101337.78;6082811;29;20646;-69
2024/02/13 06:41:42;;;;;;;8.63;7.83;;;;;;;4.82;100.00;101339.41;6086060;29;20240;-68
2024/02/13 06:45:03;;;;;;;7.13;6.47;;;;;;;4.79;100.00;101350.31;6110161;29;20236;-68
2024/02/13 06:48:24;;;;;;;14.97;7.83;;;;;;;4.82;100.00;101354.56;6088464;29;20241;-68
2024/02/13 06:51:44;;;;;;;7.30;6.60;;;;;;;4.83;100.00;101343.81;6100533;29;20224;-68
2024/02/13 06:55:08;;;;;;;12.07;7.73;;;;;;;4.81;100.00;101358.22;6104068;29;20315;-68
2024/02/13 06:58:29;;;;;;;9.73;8.33;;;;;;;4.79;100.00;101354.78;6109496;29;20239;-69
2024/02/13 07:01:50;;;;;;;7.90;7.10;;;;;;;4.73;100.00;101366.69;6096110;29;20291;-68
2024/02/13 07:05:11;;;;;;;9.10;6.77;;;;;;;4.74;100.00;101371.06;6086889;29;20637;-68
2024/02/13 07:08:34;;;;;;;13.90;9.13;;;;;;;4.79;100.00;101368.13;6080138;29;20228;-70
2024/02/13 07:11:56;;;;;;;12.83;8.30;;;;;;;4.74;100.00;101371.06;6101874;29;20232;-69
2024/02/13 07:15:17;;;;;;;9.80;8.70;;;;;;;4.75;100.00;101380.81;6078361;29;20685;-68
2024/02/13 07:18:39;;;;;;;9.83;7.80;;;;;;;4.69;100.00;101386.47;6104199;29;20240;-68
2024/02/13 07:22:00;;;;;;;11.23;9.80;;;;;;;4.72;100.00;101380.97;6097833;29;20638;-68
2024/02/13 07:25:21;;;;;;;9.00;8.07;;;;;;;4.69;100.00;101383.78;6102023;29;20237;-69
2024/02/13 07:28:43;;;;;;;9.70;8.60;;;;;;;4.73;100.00;101389.84;6108936;29;20503;-69
2024/02/13 07:32:05;;;;;;;10.30;7.77;;;;;;;4.74;100.00;101386.22;6095311;29;20243;-67
2024/02/13 07:35:27;;;;;;;10.50;7.63;;;;;;;4.82;100.00;101392.84;6095937;29;20229;-68
2024/02/13 07:38:48;;;;;;;12.17;9.57;;;;;;;4.81;100.00;101395.59;6107870;29;20569;-68
2024/02/13 07:42:11;;;;;;;11.57;10.37;;;;;;;4.84;100.00;101414.97;6101408;29;20239;-68
2024/02/13 07:45:33;;;;;;;15.20;11.37;;;;;;;4.97;100.00;101395.56;6090328;29;20233;-69
2024/02/13 07:48:55;;;;;;;10.93;9.83;;;;;;;5.18;100.00;101395.22;6090018;29;20232;-69
2024/02/13 07:52:17;;;;;;;9.70;8.73;;;;;;;5.30;100.00;101399.81;6085445;29;20239;-68
2024/02/13 07:55:41;;;;;;;11.43;10.27;;;;;;;5.32;100.00;101407.78;6097392;29;20711;-69
2024/02/13 07:59:02;;;;;;;15.37;10.27;;;;;;;5.46;100.00;101407.81;6094648;29;20252;-69
2024/02/13 08:02:25;;;;;;;12.30;11.10;;;;;;;5.40;100.00;101405.50;6087013;29;20677;-67
2024/02/13 08:05:45;;;;;;;11.40;10.30;;;;;;;5.35;100.00;101411.13;6096515;29;20235;-68
2024/02/13 08:09:06;;;;;;;13.90;10.53;;;;;;;5.33;100.00;101417.50;6101918;29;20971;-67
2024/02/13 08:12:28;;;;;;;15.87;10.77;;;;;;;5.28;100.00;101422.25;6101010;29;20240;-68
2024/02/13 08:15:49;;;;;;;14.10;12.43;;;;;;;5.38;100.00;101413.59;6086656;29;20264;-68
2024/02/13 08:19:12;;;;;;;14.53;12.03;;;;;;;5.51;100.00;101419.97;6103483;29;20236;-68
2024/02/13 08:22:33;;;;;;;13.10;11.80;;;;;;;5.52;100.00;101431.53;6096983;29;20228;-68
2024/02/13 08:25:54;;;;;;;14.07;10.20;;;;;;;5.44;100.00;101428.44;6078027;29;20597;-68
2024/02/13 08:29:15;;;;;;;13.57;11.23;;;;;;;5.59;100.00;101423.03;6102677;29;20255;-67
2024/02/13 08:32:38;;;;;;;13.27;11.87;;;;;;;5.53;100.00;101419.84;6077376;29;20235;-69
2024/02/13 08:36:02;;;;;;;12.77;11.43;;;;;;;5.66;100.00;101424.41;6100003;29;20231;-67
2024/02/13 08:39:22;;;;;;;13.27;8.57;;;;;;;5.72;100.00;101433.84;6106251;29;20227;-68
2024/02/13 08:42:44;;;;;;;12.23;10.90;;;;;;;5.86;100.00;101417.88;6097694;29;20324;-66
2024/02/13 08:46:05;;;;;;;9.60;8.60;;;;;;;5.83;100.00;101422.50;6095111;29;20224;-67
2024/02/13 08:49:26;;;;;;;9.27;8.20;;;;;;;6.47;100.00;101429.19;6096349;29;20220;-68
2024/02/13 08:52:49;;;;;;;10.70;8.87;;;;;;;6.00;100.00;101428.63;6065718;29;20239;-68
2024/02/13 08:56:10;;;;;;;10.67;9.57;;;;;;;6.00;100.00;101420.59;6097627;29;20240;-67
2024/02/13 08:59:31;;;;;;;9.93;6.60;;;;;;;5.95;100.00;101427.16;6098987;29;20243;-68
2024/02/13 09:02:52;;;;;;;8.93;8.07;;;;;;;6.13;100.00;101423.38;6092502;29;20232;-69
2024/02/13 09:06:13;;;;;;;10.80;8.87;;;;;;;6.03;100.00;101423.06;6095139;29;20323;-68
2024/02/13 09:09:36;;;;;;;11.37;7.70;;;;;;;6.15;100.00;101418.78;6105599;29;20259;-68
2024/02/13 09:12:57;;;;;;;10.70;8.23;;;;;;;6.13;100.00;101421.53;6097517;29;20231;-67
2024/02/13 09:16:18;;;;;;;15.47;8.13;;;;;;;6.30;100.00;101417.84;6101182;29;20239;-68
2024/02/13 09:19:42;;;;;;;9.60;8.67;;;;;;;6.38;100.00;101431.59;6087253;29;20610;-67
2024/02/13 09:23:03;;;;;;;10.23;8.10;;;;;;;6.45;100.00;101425.75;6083534;28;20317;-68
2024/02/13 09:26:26;;;;;;;9.60;7.20;;;;;;;6.45;100.00;101440.94;6104550;29;20658;-67
2024/02/13 09:29:47;;;;;;;11.47;8.10;;;;;;;6.51;100.00;101435.22;6100389;29;20232;-67
2024/02/13 09:33:09;;;;;;;8.27;7.43;;;;;;;6.55;100.00;101450.13;6090040;29;20677;-66
2024/02/13 09:36:31;;;;;;;12.73;7.13;;;;;;;6.61;100.00;101451.56;6094496;29;20594;-66
2024/02/13 09:39:52;;;;;;;10.50;8.80;;;;;;;6.74;100.00;101445.31;6100931;29;21623;-69
2024/02/13 09:43:15;;;;;;;13.43;9.67;;;;;;;6.65;100.00;101459.31;6104570;29;20316;-68
2024/02/13 09:46:37;;;;;;;10.60;8.87;;;;;;;6.69;100.00;101463.53;6092894;29;20228;-67
2024/02/13 09:50:00;;;;;;;12.03;7.00;;;;;;;6.61;100.00;101462.28;6096691;29;20243;-70
2024/02/13 09:53:26;;;;;;;10.67;9.23;;;;;;;6.68;100.00;101459.13;6080914;29;20244;-68
2024/02/13 09:56:51;;;;;;;10.40;9.40;;;;;;;6.57;100.00;101463.44;6106118;29;20235;-68
2024/02/13 10:00:16;;;;;;;12.20;8.40;;;;;;;6.71;100.00;101474.13;6103734;29;20264;-68
2024/02/13 10:03:38;;;;;;;10.37;9.13;;;;;;;6.77;100.00;101481.78;6103761;29;20681;-69
2024/02/13 10:07:01;;;;;;;17.83;8.20;;;;;;;6.60;100.00;101482.84;6106642;29;20307;-68
2024/02/13 10:10:22;;;;;;;11.23;10.13;;;;;;;6.67;100.00;101484.19;6107414;29;20240;-69
2024/02/13 10:13:43;;;;;;;12.53;8.93;;;;;;;6.81;100.00;101484.19;6110308;29;20244;-68
2024/02/13 10:17:11;;;;;;;12.90;8.33;;;;;;;6.69;100.00;101486.78;6103346;29;20228;-68
2024/02/13 10:20:32;;;;;;;12.70;9.03;;;;;;;6.73;100.00;101478.44;6105928;29;20570;-70
2024/02/13 10:24:04;;;;;;;11.73;8.70;;;;;;;6.82;100.00;101485.06;6108808;29;20521;-68
2024/02/13 10:27:24;;;;;;;11.67;9.60;;;;;;;6.76;100.00;101485.44;6101474;29;20239;-68
2024/02/13 10:30:49;;;;;;;9.57;8.57;;;;;;;6.73;100.00;101481.13;6107749;29;20623;-68
2024/02/13 10:34:12;;;;;;;10.43;9.53;;;;;;;6.91;100.00;101484.44;6093962;29;20250;-69
2024/02/13 10:37:33;;;;;;;10.93;9.83;;;;;;;6.89;100.00;101489.91;6100668;29;20232;-68
2024/02/13 10:40:56;;;;;;;9.20;8.30;;;;;;;6.92;100.00;101499.56;6102422;29;20322;-68
2024/02/13 10:44:21;;;;;;;9.80;8.17;;;;;;;7.16;100.00;101498.00;6108813;29;20232;-69
2024/02/13 10:47:49;;;;;;;10.80;9.10;;;;;;;7.10;100.00;101501.06;6097626;29;20227;-69
2024/02/13 10:51:16;;;;;;;11.03;9.93;;;;;;;7.31;100.00;101493.44;6098786;29;20378;-69
2024/02/13 10:54:39;;;;;;;14.67;8.23;;;;;;;7.82;100.00;101495.38;6104741;29;20505;-68
2024/02/13 10:58:00;;;;;;;8.80;7.93;;;;;;;7.63;100.00;101502.94;6097683;29;20662;-69
2024/02/13 11:01:22;;;;;;;8.67;7.87;;;;;;;7.64;100.00;101484.03;6100315;29;20250;-69
2024/02/13 11:04:46;;;;;;;9.27;8.00;;;;;;;7.83;100.00;101486.34;6103510;29;20285;-70
2024/02/13 11:08:09;;;;;;;10.87;8.50;;;;;;;8.09;100.00;101475.53;6107829;29;20270;-68
2024/02/13 11:11:32;;;;;;;11.83;8.37;;;;;;;8.51;100.00;101482.47;6103484;29;20694;-67
2024/02/13 11:14:52;;;;;;;12.23;8.70;;;;;;;8.05;100.00;101487.47;6090042;29;20236;-68
2024/02/13 11:18:14;;;;;;;11.17;9.70;;;;;;;8.16;100.00;101481.34;6101287;29;20225;-69
2024/02/13 11:21:41;;;;;;;7.23;6.53;;;;;;;7.42;100.00;101477.53;6105878;29;20231;-67
2024/02/13 11:25:08;;;;;;;8.23;6.70;;;;;;;7.32;100.00;101477.28;6102788;29;20232;-68
2024/02/13 11:28:33;;;;;;;11.17;9.20;;;;;;;7.59;100.00;101483.50;6105048;29;20228;-69
2024/02/13 11:31:57;;;;;;;12.50;9.40;;;;;;;7.66;100.00;101474.06;6096827;29;20250;-69
2024/02/13 11:35:37;;;;;;;10.67;9.00;;;;;;;7.47;100.00;101484.28;6076850;29;20232;-70
2024/02/13 11:39:03;;;;;;;8.07;6.47;;;;;;;7.28;100.00;101485.63;6099793;29;20247;-68
2024/02/13 11:42:33;;;;;;;9.10;8.20;;;;;;;7.42;100.00;101489.13;6104209;29;20232;-67
2024/02/13 11:45:58;;;;;;;10.10;8.80;;;;;;;7.55;100.00;101487.31;6094582;29;20259;-68
2024/02/13 11:49:19;;;;;;;12.67;11.37;;;;;;;7.58;100.00;101492.50;6105657;29;20236;-68
2024/02/13 11:52:40;;;;;;;10.40;9.30;;;;;;;7.52;100.00;101492.03;6085736;29;20854;-68
2024/02/13 11:56:03;;;;;;;9.93;9.00;;;;;;;7.28;100.00;101506.09;6100308;29;20236;-68
2024/02/13 11:59:26;;;;;;;14.13;10.07;;;;;;;7.28;100.00;101496.34;6100174;29;20224;-69
2024/02/13 12:02:53;;;;;;;11.33;10.13;;;;;;;7.72;100.00;101488.88;6100587;29;20232;-69
2024/02/13 12:06:15;;;;;;;12.40;8.17;;;;;;;7.43;100.00;101498.88;6102182;29;20243;-68
2024/02/13 12:09:37;;;;;;;9.77;8.90;;;;;;;7.38;100.00;101505.50;6102591;29;20244;-68
2024/02/13 12:12:58;;;;;;;11.00;8.13;;;;;;;7.42;100.00;101493.63;6101570;29;20267;-68
2024/02/13 12:16:20;;;;;;;13.70;8.97;;;;;;;7.58;100.00;101505.03;6099338;29;20274;-68
2024/02/13 12:19:42;;;;;;;15.60;9.77;;;;;;;7.54;100.00;101504.41;6100959;29;21103;-68
2024/02/13 12:23:05;;;;;;;10.17;9.17;;;;;;;7.34;100.00;101507.53;6108903;28;21288;-68
2024/02/13 12:26:28;;;;;;;11.77;10.20;;;;;;;7.39;100.00;101516.13;6087167;29;20228;-69
2024/02/13 12:29:49;;;;;;;8.37;7.63;;;;;;;7.18;100.00;101507.66;6101488;29;20233;-69
2024/02/13 12:33:20;;;;;;;10.97;9.93;;;;;;;7.20;100.00;101516.47;6105823;29;20590;-69
2024/02/13 12:36:40;;;;;;;11.80;10.07;;;;;;;7.19;100.00;101513.91;6097829;29;20510;-68
2024/02/13 12:40:14;;;;;;;12.50;11.27;;;;;;;7.21;100.00;101512.84;6108609;29;20236;-69
2024/02/13 12:43:36;;;;;;;12.60;11.10;;;;;;;7.32;100.00;101520.19;6091342;29;20594;-69
2024/02/13 12:46:56;;;;;;;10.13;9.07;;;;;;;7.17;100.00;101519.38;6096514;29;20259;-69
2024/02/13 12:50:21;;;;;;;12.03;7.87;;;;;;;6.95;100.00;101529.72;6097837;29;20235;-67
2024/02/13 12:53:45;;;;;;;7.90;5.73;;;;;;;6.98;100.00;101539.38;6092136;29;20263;-68
2024/02/13 12:57:09;;;;;;;12.40;10.53;;;;;;;7.08;100.00;101532.47;6084756;29;20315;-68
2024/02/13 13:00:34;;;;;;;13.60;11.13;;;;;;;7.26;100.00;101524.09;6080124;29;20743;-68
2024/02/13 13:03:57;;;;;;;13.33;10.67;;;;;;;7.43;100.00;101522.16;6085326;29;20236;-68
2024/02/13 13:07:21;;;;;;;11.30;9.50;;;;;;;7.47;100.00;101521.84;6084193;29;20537;-68
2024/02/13 13:10:43;;;;;;;12.53;9.67;;;;;;;7.30;100.00;101532.84;6087519;29;20232;-68
2024/02/13 13:14:05;;;;;;;10.97;9.77;;;;;;;7.18;100.00;101517.53;6090184;29;20339;-68
2024/02/13 13:17:28;;;;;;;15.10;10.93;;;;;;;7.07;100.00;101522.72;6086348;29;20240;-67
2024/02/13 13:20:50;;;;;;;13.13;10.70;;;;;;;7.13;100.00;101527.69;6090535;29;20364;-68
2024/02/13 13:24:13;;;;;;;10.57;9.57;;;;;;;7.21;100.00;101518.19;6102846;29;20267;-68
2024/02/13 13:27:33;;;;;;;10.83;9.57;;;;;;;7.11;100.00;101526.94;6102542;29;20235;-68
2024/02/13 13:30:57;;;;;;;11.77;9.97;;;;;;;7.11;100.00;101516.22;6106031;29;20724;-67
2024/02/13 13:34:19;;;;;;;15.33;11.17;;;;;;;7.16;100.00;101514.94;6108338;29;20243;-68
2024/02/13 13:37:41;;;;;;;15.77;12.03;;;;;;;7.15;100.00;101520.41;6101522;29;20223;-68
2024/02/13 13:41:04;;;;;;;16.03;13.00;;;;;;;7.24;100.00;101515.31;6100152;29;20243;-68
2024/02/13 13:44:25;;;;;;;12.40;9.13;;;;;;;7.20;100.00;101526.31;6105991;29;20343;-68
2024/02/13 13:47:47;;;;;;;10.87;8.53;;;;;;;7.26;100.00;101526.78;6104184;29;20228;-68
2024/02/13 13:51:09;;;;;;;16.37;13.37;;;;;;;7.27;100.00;101519.63;6105966;29;20236;-68
2024/02/13 13:54:30;;;;;;;14.10;10.17;;;;;;;7.25;100.00;101522.41;6111223;29;20242;-68
2024/02/13 13:57:52;;;;;;;11.17;10.17;;;;;;;7.24;100.00;101526.03;6108260;29;20216;-69
2024/02/13 14:01:13;;;;;;;9.30;8.40;;;;;;;7.29;100.00;101531.09;6093303;29;20227;-68
2024/02/13 14:04:34;;;;;;;16.03;10.63;;;;;;;7.28;100.00;101528.53;6106346;29;20227;-69
2024/02/13 14:07:55;;;;;;;16.67;9.63;;;;;;;7.23;100.00;101531.50;6103785;29;20236;-69
2024/02/13 14:11:17;;;;;;;11.50;10.30;;;;;;;7.28;100.00;101544.63;6099804;29;20639;-69
2024/02/13 14:14:39;;;;;;;11.23;9.90;;;;;;;7.28;100.00;101532.06;6107091;29;20244;-68
2024/02/13 14:18:00;;;;;;;11.27;10.07;;;;;;;7.30;100.00;101538.19;6093960;29;20236;-67
2024/02/13 14:21:23;;;;;;;10.00;9.00;;;;;;;7.31;100.00;101533.69;6107833;29;20248;-68
2024/02/13 14:24:45;;;;;;;13.13;10.77;;;;;;;7.34;100.00;101528.13;6112054;29;20274;-69
2024/02/13 14:28:09;;;;;;;10.93;8.97;;;;;;;7.28;100.00;101534.72;6104269;29;20266;-68
2024/02/13 14:31:31;;;;;;;11.47;9.70;;;;;;;7.30;100.00;101537.34;6102915;29;20235;-69
2024/02/13 14:34:53;;;;;;;10.07;8.40;;;;;;;7.30;100.00;101538.19;6106696;29;20231;-69
2024/02/13 14:38:15;;;;;;;15.07;10.20;;;;;;;7.33;100.00;101539.81;6107446;29;20235;-68
2024/02/13 14:41:36;;;;;;;14.10;10.87;;;;;;;7.40;100.00;101544.69;6105870;29;20236;-69
2024/02/13 14:44:56;;;;;;;11.23;10.10;;;;;;;7.41;100.00;101545.53;6100851;29;20506;-68
2024/02/13 14:48:19;;;;;;;12.60;10.90;;;;;;;7.48;100.00;101542.38;6082248;29;20611;-69
2024/02/13 14:51:40;;;;;;;10.27;9.23;;;;;;;7.46;100.00;101544.28;6102839;29;20549;-69
2024/02/13 14:55:02;;;;;;;12.63;9.33;;;;;;;7.44;100.00;101550.72;6108943;29;20236;-68
2024/02/13 14:58:25;;;;;;;14.53;10.27;;;;;;;7.46;100.00;101548.78;6095208;29;20262;-69
2024/02/13 15:01:46;;;;;;;11.47;10.47;;;;;;;7.46;100.00;101546.97;6094853;29;20240;-68
2024/02/13 15:05:09;;;;;;;9.40;8.50;;;;;;;7.77;100.00;101544.00;6091032;29;20365;-68
2024/02/13 15:08:32;;;;;;;10.33;9.33;;;;;;;7.62;100.00;101541.44;6101915;29;20594;-68
2024/02/13 15:11:56;;;;;;;9.93;9.03;;;;;;;7.58;100.00;101551.53;6102910;29;20326;-68
2024/02/13 15:15:18;;;;;;;9.33;8.33;;;;;;;7.52;100.00;101551.94;6104703;29;20250;-69
2024/02/13 15:18:39;;;;;;;14.53;9.37;;;;;;;7.58;100.00;101548.84;6100457;29;20243;-69
2024/02/13 15:22:01;;;;;;;9.87;8.77;;;;;;;7.48;100.00;101555.78;6098439;29;20235;-68
2024/02/13 15:25:23;;;;;;;9.00;7.60;;;;;;;8.09;100.00;101552.56;6101990;29;20491;-69
2024/02/13 15:28:44;;;;;;;16.93;8.20;;;;;;;8.31;100.00;101557.34;6091758;29;20239;-68
2024/02/13 15:32:05;;;;;;;11.70;8.57;;;;;;;8.32;100.00;101557.28;6090554;29;20233;-67
2024/02/13 15:35:39;;;;;;;10.27;8.53;;;;;;;8.49;100.00;101564.16;6097893;29;20639;-71